sensor_id;sensor_type;location;lat;lon;timestamp;pressure;altitude;pressure_sealevel;temperature;humidity
77041;BME280;65974;42.664;23.264;2023-06-22T00:03:38;94823.59;;;18.22;67.38
77041;BME280;65974;42.664;23.264;2023-06-22T00:06:03;94831.78;;;18.18;66.90
77041;BME280;65974;42.664;23.264;2023-06-22T00:08:29;94823.69;;;18.18;67.24
77041;BME280;65974;42.664;23.264;2023-06-22T00:10:54;94819.31;;;18.24;67.71
77041;BME280;65974;42.664;23.264;2023-06-22T00:13:19;94825.81;;;18.27;67.83
77041;BME280;65974;42.664;23.264;2023-06-22T00:15:45;94819.31;;;18.24;68.28
77041;BME280;65974;42.664;23.264;2023-06-22T00:18:10;94817.97;;;18.16;68.29
77041;BME280;65974;42.664;23.264;2023-06-22T00:20:36;94804.41;;;18.20;68.63
77041;BME280;65974;42.664;23.264;2023-06-22T00:23:03;94811.66;;;18.23;68.74
77041;BME280;65974;42.664;23.264;2023-06-22T00:25:39;94804.31;;;18.23;68.93
77041;BME280;65974;42.664;23.264;2023-06-22T00:28:07;94797.34;;;18.26;68.49
77041;BME280;65974;42.664;23.264;2023-06-22T00:30:33;94798.88;;;18.27;68.79
77041;BME280;65974;42.664;23.264;2023-06-22T00:32:59;94800.03;;;18.26;69.53
77041;BME280;65974;42.664;23.264;2023-06-22T00:35:25;94797.91;;;18.17;69.31
77041;BME280;65974;42.664;23.264;2023-06-22T00:37:59;94800.81;;;18.07;69.08
77041;BME280;65974;42.664;23.264;2023-06-22T00:40:31;94794.94;;;18.12;69.67
77041;BME280;65974;42.664;23.264;2023-06-22T00:42:56;94797.28;;;18.10;69.78
77041;BME280;65974;42.664;23.264;2023-06-22T00:45:25;94797.69;;;18.08;70.06
77041;BME280;65974;42.664;23.264;2023-06-22T00:47:52;94797.97;;;18.14;69.93
77041;BME280;65974;42.664;23.264;2023-06-22T00:50:20;94807.84;;;18.20;69.53
77041;BME280;65974;42.664;23.264;2023-06-22T00:52:57;94798.91;;;18.23;68.41
77041;BME280;65974;42.664;23.264;2023-06-22T00:55:24;94791.69;;;18.20;68.64
77041;BME280;65974;42.664;23.264;2023-06-22T00:57:52;94790.66;;;18.14;69.83
77041;BME280;65974;42.664;23.264;2023-06-22T01:00:23;94791.47;;;18.11;69.99
77041;BME280;65974;42.664;23.264;2023-06-22T01:02:50;94797.78;;;18.05;69.83
77041;BME280;65974;42.664;23.264;2023-06-22T01:05:18;94805.94;;;18.01;69.84
77041;BME280;65974;42.664;23.264;2023-06-22T01:11:08;94810.28;;;17.75;69.98
77041;BME280;65974;42.664;23.264;2023-06-22T01:18:42;94817.81;;;17.84;70.92
77041;BME280;65974;42.664;23.264;2023-06-22T01:21:10;94805.81;;;17.89;70.94
77041;BME280;65974;42.664;23.264;2023-06-22T01:24:23;94803.22;;;17.81;71.49
77041;BME280;65974;42.664;23.264;2023-06-22T01:27:02;94803.56;;;17.83;71.85
77041;BME280;65974;42.664;23.264;2023-06-22T01:29:30;94805.16;;;17.81;72.04
77041;BME280;65974;42.664;23.264;2023-06-22T01:31:59;94821.88;;;17.72;72.36
77041;BME280;65974;42.664;23.264;2023-06-22T01:34:25;94815.56;;;17.59;72.54
77041;BME280;65974;42.664;23.264;2023-06-22T01:36:52;94816.91;;;17.48;72.09
77041;BME280;65974;42.664;23.264;2023-06-22T01:39:18;94825.47;;;17.43;72.25
77041;BME280;65974;42.664;23.264;2023-06-22T01:41:44;94815.91;;;17.38;72.25
77041;BME280;65974;42.664;23.264;2023-06-22T01:44:12;94820.50;;;17.41;72.12
77041;BME280;65974;42.664;23.264;2023-06-22T01:46:38;94821.09;;;17.52;72.30
77041;BME280;65974;42.664;23.264;2023-06-22T01:49:05;94820.94;;;17.59;72.52
77041;BME280;65974;42.664;23.264;2023-06-22T01:51:31;94820.94;;;17.59;72.58
77041;BME280;65974;42.664;23.264;2023-06-22T01:53:57;94831.38;;;17.57;72.79
77041;BME280;65974;42.664;23.264;2023-06-22T01:56:22;94833.31;;;17.57;72.40
77041;BME280;65974;42.664;23.264;2023-06-22T01:59:25;94827.88;;;17.60;72.15
77041;BME280;65974;42.664;23.264;2023-06-22T02:02:01;94830.34;;;17.51;72.91
77041;BME280;65974;42.664;23.264;2023-06-22T02:04:51;94837.44;;;17.38;73.58
77041;BME280;65974;42.664;23.264;2023-06-22T02:07:17;94848.47;;;17.24;73.63
77041;BME280;65974;42.664;23.264;2023-06-22T02:09:45;94854.66;;;17.21;73.80
77041;BME280;65974;42.664;23.264;2023-06-22T02:12:17;94859.34;;;17.17;74.32
77041;BME280;65974;42.664;23.264;2023-06-22T02:14:45;94842.84;;;17.15;74.40
77041;BME280;65974;42.664;23.264;2023-06-22T02:17:11;94838.94;;;17.20;74.50
77041;BME280;65974;42.664;23.264;2023-06-22T02:19:38;94826.09;;;17.27;74.26
77041;BME280;65974;42.664;23.264;2023-06-22T02:22:06;94821.44;;;17.31;74.07
77041;BME280;65974;42.664;23.264;2023-06-22T02:24:31;94832.31;;;17.24;74.09
77041;BME280;65974;42.664;23.264;2023-06-22T02:26:59;94835.59;;;17.12;74.45
77041;BME280;65974;42.664;23.264;2023-06-22T02:29:25;94832.66;;;17.03;74.78
77041;BME280;65974;42.664;23.264;2023-06-22T02:31:50;94827.09;;;16.90;75.73
77041;BME280;65974;42.664;23.264;2023-06-22T02:34:16;94826.06;;;16.81;75.82
77041;BME280;65974;42.664;23.264;2023-06-22T02:36:45;94834.63;;;16.76;76.14
77041;BME280;65974;42.664;23.264;2023-06-22T02:39:20;94826.63;;;16.69;76.45
77041;BME280;65974;42.664;23.264;2023-06-22T02:41:48;94827.56;;;16.59;76.53
77041;BME280;65974;42.664;23.264;2023-06-22T02:44:14;94827.66;;;16.52;76.21
77041;BME280;65974;42.664;23.264;2023-06-22T02:46:39;94826.88;;;16.51;76.01
77041;BME280;65974;42.664;23.264;2023-06-22T02:49:05;94825.00;;;16.48;75.99
77041;BME280;65974;42.664;23.264;2023-06-22T02:51:33;94822.69;;;16.50;75.90
77041;BME280;65974;42.664;23.264;2023-06-22T02:53:59;94823.78;;;16.53;75.65
77041;BME280;65974;42.664;23.264;2023-06-22T02:56:25;94821.81;;;16.57;75.57
77041;BME280;65974;42.664;23.264;2023-06-22T02:58:51;94831.03;;;16.56;75.54
77041;BME280;65974;42.664;23.264;2023-06-22T03:01:16;94824.09;;;16.58;75.63
77041;BME280;65974;42.664;23.264;2023-06-22T03:03:42;94822.06;;;16.66;76.19
77041;BME280;65974;42.664;23.264;2023-06-22T03:06:07;94821.16;;;16.76;75.39
77041;BME280;65974;42.664;23.264;2023-06-22T03:08:33;94829.19;;;16.79;75.61
77041;BME280;65974;42.664;23.264;2023-06-22T03:10:59;94837.78;;;16.94;75.23
77041;BME280;65974;42.664;23.264;2023-06-22T03:13:24;94840.78;;;16.99;73.63
77041;BME280;65974;42.664;23.264;2023-06-22T03:15:50;94840.06;;;16.95;73.95
77041;BME280;65974;42.664;23.264;2023-06-22T03:18:16;94846.22;;;16.96;74.32
77041;BME280;65974;42.664;23.264;2023-06-22T03:20:42;94857.69;;;17.00;74.65
77041;BME280;65974;42.664;23.264;2023-06-22T03:23:07;94857.22;;;17.05;74.85
77041;BME280;65974;42.664;23.264;2023-06-22T03:25:33;94860.19;;;17.14;75.03
77041;BME280;65974;42.664;23.264;2023-06-22T03:27:59;94865.91;;;17.16;74.76
77041;BME280;65974;42.664;23.264;2023-06-22T03:30:26;94862.72;;;17.21;74.82
77041;BME280;65974;42.664;23.264;2023-06-22T03:32:51;94859.16;;;17.28;74.46
77041;BME280;65974;42.664;23.264;2023-06-22T03:35:17;94857.19;;;17.32;74.29
77041;BME280;65974;42.664;23.264;2023-06-22T03:37:42;94868.25;;;17.37;74.60
77041;BME280;65974;42.664;23.264;2023-06-22T03:40:08;94870.47;;;17.42;74.24
77041;BME280;65974;42.664;23.264;2023-06-22T03:42:34;94875.50;;;17.40;73.32
77041;BME280;65974;42.664;23.264;2023-06-22T03:45:01;94874.91;;;17.29;73.85
77041;BME280;65974;42.664;23.264;2023-06-22T03:47:28;94883.03;;;17.26;74.15
77041;BME280;65974;42.664;23.264;2023-06-22T03:49:54;94879.94;;;17.27;74.24
77041;BME280;65974;42.664;23.264;2023-06-22T03:52:21;94886.44;;;17.30;74.27
77041;BME280;65974;42.664;23.264;2023-06-22T03:54:47;94897.97;;;17.30;74.38
77041;BME280;65974;42.664;23.264;2023-06-22T03:57:12;94890.66;;;17.31;74.12
77041;BME280;65974;42.664;23.264;2023-06-22T03:59:38;94892.19;;;17.32;74.36
77041;BME280;65974;42.664;23.264;2023-06-22T04:02:03;94878.38;;;17.30;74.49
77041;BME280;65974;42.664;23.264;2023-06-22T04:04:29;94878.34;;;17.33;74.73
77041;BME280;65974;42.664;23.264;2023-06-22T04:06:55;94885.91;;;17.38;74.27
77041;BME280;65974;42.664;23.264;2023-06-22T04:09:20;94881.94;;;17.46;74.97
77041;BME280;65974;42.664;23.264;2023-06-22T04:11:47;94871.44;;;17.55;75.22
77041;BME280;65974;42.664;23.264;2023-06-22T04:14:12;94872.44;;;17.65;74.82
77041;BME280;65974;42.664;23.264;2023-06-22T04:16:38;94860.78;;;17.71;74.87
77041;BME280;65974;42.664;23.264;2023-06-22T04:19:03;94859.88;;;17.78;74.54
77041;BME280;65974;42.664;23.264;2023-06-22T04:21:28;94851.25;;;17.87;74.42
77041;BME280;65974;42.664;23.264;2023-06-22T04:23:54;94854.91;;;17.96;73.97
77041;BME280;65974;42.664;23.264;2023-06-22T04:26:20;94848.97;;;18.05;73.37
77041;BME280;65974;42.664;23.264;2023-06-22T04:28:47;94847.28;;;18.14;72.94
77041;BME280;65974;42.664;23.264;2023-06-22T04:31:21;94850.22;;;18.20;73.08
77041;BME280;65974;42.664;23.264;2023-06-22T04:33:46;94855.16;;;18.25;72.94
77041;BME280;65974;42.664;23.264;2023-06-22T04:36:12;94867.31;;;18.33;72.75
77041;BME280;65974;42.664;23.264;2023-06-22T04:38:40;94861.75;;;18.40;72.45
77041;BME280;65974;42.664;23.264;2023-06-22T04:41:05;94860.94;;;18.43;72.63
77041;BME280;65974;42.664;23.264;2023-06-22T04:43:33;94863.16;;;18.48;72.33
77041;BME280;65974;42.664;23.264;2023-06-22T04:45:59;94864.88;;;18.58;71.97
77041;BME280;65974;42.664;23.264;2023-06-22T04:48:29;94869.03;;;18.63;71.33
77041;BME280;65974;42.664;23.264;2023-06-22T04:50:58;94867.84;;;18.64;71.27
77041;BME280;65974;42.664;23.264;2023-06-22T04:53:28;94875.53;;;18.65;71.17
77041;BME280;65974;42.664;23.264;2023-06-22T04:55:55;94880.06;;;18.68;71.59
77041;BME280;65974;42.664;23.264;2023-06-22T04:58:20;94881.19;;;18.71;72.01
77041;BME280;65974;42.664;23.264;2023-06-22T05:00:46;94883.88;;;18.71;72.17
77041;BME280;65974;42.664;23.264;2023-06-22T05:03:12;94872.25;;;18.74;72.17
77041;BME280;65974;42.664;23.264;2023-06-22T05:05:38;94871.69;;;18.82;71.76
77041;BME280;65974;42.664;23.264;2023-06-22T05:08:03;94881.22;;;18.87;72.20
77041;BME280;65974;42.664;23.264;2023-06-22T05:10:32;94875.22;;;18.95;71.86
77041;BME280;65974;42.664;23.264;2023-06-22T05:12:58;94877.00;;;19.02;71.33
77041;BME280;65974;42.664;23.264;2023-06-22T05:15:23;94873.34;;;19.12;71.04
77041;BME280;65974;42.664;23.264;2023-06-22T05:17:53;94875.94;;;19.15;71.29
77041;BME280;65974;42.664;23.264;2023-06-22T05:20:18;94873.91;;;19.19;70.88
77041;BME280;65974;42.664;23.264;2023-06-22T05:22:44;94872.56;;;19.27;70.87
77041;BME280;65974;42.664;23.264;2023-06-22T05:25:10;94880.59;;;19.31;71.16
77041;BME280;65974;42.664;23.264;2023-06-22T05:27:37;94878.94;;;19.37;70.91
77041;BME280;65974;42.664;23.264;2023-06-22T05:30:06;94876.81;;;19.45;70.18
77041;BME280;65974;42.664;23.264;2023-06-22T05:32:32;94885.53;;;19.52;70.16
77041;BME280;65974;42.664;23.264;2023-06-22T05:34:58;94884.59;;;19.59;69.77
77041;BME280;65974;42.664;23.264;2023-06-22T05:37:24;94894.53;;;19.62;69.71
77041;BME280;65974;42.664;23.264;2023-06-22T05:39:49;94894.38;;;19.69;69.73
77041;BME280;65974;42.664;23.264;2023-06-22T05:42:15;94896.56;;;19.74;69.39
77041;BME280;65974;42.664;23.264;2023-06-22T05:44:40;94898.72;;;19.79;69.21
77041;BME280;65974;42.664;23.264;2023-06-22T05:47:06;94907.84;;;19.85;68.52
77041;BME280;65974;42.664;23.264;2023-06-22T05:49:31;94911.97;;;19.89;68.77
77041;BME280;65974;42.664;23.264;2023-06-22T05:51:58;94913.75;;;19.96;68.59
77041;BME280;65974;42.664;23.264;2023-06-22T05:54:25;94918.47;;;20.08;68.81
77041;BME280;65974;42.664;23.264;2023-06-22T05:56:50;94917.94;;;20.13;68.88
77041;BME280;65974;42.664;23.264;2023-06-22T05:59:16;94915.50;;;20.19;68.54
77041;BME280;65974;42.664;23.264;2023-06-22T06:01:41;94917.78;;;20.20;68.31
77041;BME280;65974;42.664;23.264;2023-06-22T06:04:07;94913.25;;;20.30;68.37
77041;BME280;65974;42.664;23.264;2023-06-22T06:06:35;94911.97;;;20.34;67.85
77041;BME280;65974;42.664;23.264;2023-06-22T06:09:03;94910.19;;;20.44;67.00
77041;BME280;65974;42.664;23.264;2023-06-22T06:11:29;94901.84;;;20.51;68.00
77041;BME280;65974;42.664;23.264;2023-06-22T06:13:55;94895.59;;;20.54;67.49
77041;BME280;65974;42.664;23.264;2023-06-22T06:16:20;94898.19;;;20.57;67.39
77041;BME280;65974;42.664;23.264;2023-06-22T06:18:45;94884.47;;;20.64;67.38
77041;BME280;65974;42.664;23.264;2023-06-22T06:21:11;94886.97;;;20.71;66.79
77041;BME280;65974;42.664;23.264;2023-06-22T06:23:36;94891.00;;;20.79;66.53
77041;BME280;65974;42.664;23.264;2023-06-22T06:26:02;94880.69;;;20.87;66.12
77041;BME280;65974;42.664;23.264;2023-06-22T06:28:32;94885.47;;;20.96;66.13
77041;BME280;65974;42.664;23.264;2023-06-22T06:30:57;94882.22;;;21.01;65.88
77041;BME280;65974;42.664;23.264;2023-06-22T06:33:23;94886.59;;;21.11;66.18
77041;BME280;65974;42.664;23.264;2023-06-22T06:35:49;94885.53;;;21.21;65.74
77041;BME280;65974;42.664;23.264;2023-06-22T06:38:15;94880.50;;;21.32;65.02
77041;BME280;65974;42.664;23.264;2023-06-22T06:40:40;94884.28;;;21.47;65.08
77041;BME280;65974;42.664;23.264;2023-06-22T06:43:06;94881.13;;;21.61;64.61
77041;BME280;65974;42.664;23.264;2023-06-22T06:45:32;94868.72;;;21.73;64.41
77041;BME280;65974;42.664;23.264;2023-06-22T06:47:59;94876.84;;;21.85;64.73
77041;BME280;65974;42.664;23.264;2023-06-22T06:50:25;94872.16;;;21.98;64.28
77041;BME280;65974;42.664;23.264;2023-06-22T06:52:50;94863.22;;;22.10;63.98
77041;BME280;65974;42.664;23.264;2023-06-22T06:55:16;94865.13;;;22.22;63.79
77041;BME280;65974;42.664;23.264;2023-06-22T06:57:42;94859.16;;;22.36;62.44
77041;BME280;65974;42.664;23.264;2023-06-22T07:00:11;94866.38;;;22.52;61.95
77041;BME280;65974;42.664;23.264;2023-06-22T07:02:41;94868.16;;;22.68;62.37
77041;BME280;65974;42.664;23.264;2023-06-22T07:05:08;94864.44;;;22.83;61.82
77041;BME280;65974;42.664;23.264;2023-06-22T07:07:34;94858.50;;;22.97;61.66
77041;BME280;65974;42.664;23.264;2023-06-22T07:10:00;94849.75;;;23.02;61.33
77041;BME280;65974;42.664;23.264;2023-06-22T07:12:25;94861.25;;;23.15;61.10
77041;BME280;65974;42.664;23.264;2023-06-22T07:14:52;94862.06;;;23.25;60.56
77041;BME280;65974;42.664;23.264;2023-06-22T07:17:17;94867.66;;;23.31;60.52
77041;BME280;65974;42.664;23.264;2023-06-22T07:19:43;94873.75;;;23.35;61.07
77041;BME280;65974;42.664;23.264;2023-06-22T07:22:08;94869.38;;;23.37;60.73
77041;BME280;65974;42.664;23.264;2023-06-22T07:24:34;94868.03;;;23.42;60.09
77041;BME280;65974;42.664;23.264;2023-06-22T07:26:59;94863.50;;;23.48;59.36
77041;BME280;65974;42.664;23.264;2023-06-22T07:29:25;94869.88;;;23.54;59.54
77041;BME280;65974;42.664;23.264;2023-06-22T07:31:52;94867.47;;;23.65;59.57
77041;BME280;65974;42.664;23.264;2023-06-22T07:34:18;94864.91;;;23.70;59.41
77041;BME280;65974;42.664;23.264;2023-06-22T07:36:44;94871.28;;;23.76;59.23
77041;BME280;65974;42.664;23.264;2023-06-22T07:39:09;94879.28;;;23.80;59.14
77041;BME280;65974;42.664;23.264;2023-06-22T07:41:35;94869.31;;;23.86;59.50
77041;BME280;65974;42.664;23.264;2023-06-22T07:44:02;94878.25;;;23.96;59.22
77041;BME280;65974;42.664;23.264;2023-06-22T07:46:27;94878.56;;;23.98;60.24
77041;BME280;65974;42.664;23.264;2023-06-22T07:48:55;94877.63;;;24.01;59.85
77041;BME280;65974;42.664;23.264;2023-06-22T07:51:21;94878.69;;;24.03;59.96
77041;BME280;65974;42.664;23.264;2023-06-22T07:53:46;94887.03;;;24.00;59.44
77041;BME280;65974;42.664;23.264;2023-06-22T07:56:13;94882.31;;;24.00;59.26
77041;BME280;65974;42.664;23.264;2023-06-22T07:58:39;94882.31;;;24.00;59.95
77041;BME280;65974;42.664;23.264;2023-06-22T08:01:05;94876.13;;;24.00;59.74
77041;BME280;65974;42.664;23.264;2023-06-22T08:03:31;94875.53;;;23.96;59.41
77041;BME280;65974;42.664;23.264;2023-06-22T08:05:57;94869.34;;;23.95;59.78
77041;BME280;65974;42.664;23.264;2023-06-22T08:08:23;94868.88;;;23.97;59.99
77041;BME280;65974;42.664;23.264;2023-06-22T08:10:48;94857.81;;;24.00;60.38
77041;BME280;65974;42.664;23.264;2023-06-22T08:13:14;94861.22;;;24.04;60.31
77041;BME280;65974;42.664;23.264;2023-06-22T08:15:39;94861.81;;;24.08;61.31
77041;BME280;65974;42.664;23.264;2023-06-22T08:18:05;94862.53;;;24.09;60.70
77041;BME280;65974;42.664;23.264;2023-06-22T08:20:30;94866.19;;;24.06;60.41
77041;BME280;65974;42.664;23.264;2023-06-22T08:22:56;94862.25;;;24.07;59.38
77041;BME280;65974;42.664;23.264;2023-06-22T08:25:23;94856.38;;;24.08;60.16
77041;BME280;65974;42.664;23.264;2023-06-22T08:27:48;94853.03;;;24.13;60.39
77041;BME280;65974;42.664;23.264;2023-06-22T08:30:14;94856.63;;;24.19;60.04
77041;BME280;65974;42.664;23.264;2023-06-22T08:32:40;94845.44;;;24.26;59.22
77041;BME280;65974;42.664;23.264;2023-06-22T08:35:05;94846.94;;;24.36;59.50
77041;BME280;65974;42.664;23.264;2023-06-22T08:37:33;94850.44;;;24.37;59.25
77041;BME280;65974;42.664;23.264;2023-06-22T08:40:01;94851.34;;;24.34;59.28
77041;BME280;65974;42.664;23.264;2023-06-22T08:42:27;94855.59;;;24.35;59.33
77041;BME280;65974;42.664;23.264;2023-06-22T08:44:52;94861.03;;;24.44;57.62
77041;BME280;65974;42.664;23.264;2023-06-22T08:47:19;94856.16;;;24.48;58.36
77041;BME280;65974;42.664;23.264;2023-06-22T08:49:45;94855.09;;;24.54;58.62
77041;BME280;65974;42.664;23.264;2023-06-22T08:52:10;94846.31;;;24.59;57.76
77041;BME280;65974;42.664;23.264;2023-06-22T08:54:35;94852.38;;;24.63;57.19
77041;BME280;65974;42.664;23.264;2023-06-22T08:57:02;94842.97;;;24.64;57.45
77041;BME280;65974;42.664;23.264;2023-06-22T08:59:27;94846.00;;;24.76;59.74
77041;BME280;65974;42.664;23.264;2023-06-22T09:01:53;94834.03;;;24.82;57.88
77041;BME280;65974;42.664;23.264;2023-06-22T09:04:18;94822.63;;;24.93;56.72
77041;BME280;65974;42.664;23.264;2023-06-22T09:06:47;94826.69;;;24.97;52.75
77041;BME280;65974;42.664;23.264;2023-06-22T09:09:13;94820.03;;;24.98;52.09
77041;BME280;65974;42.664;23.264;2023-06-22T09:11:39;94832.28;;;25.03;52.88
77041;BME280;65974;42.664;23.264;2023-06-22T09:14:05;94829.78;;;25.23;49.38
77041;BME280;65974;42.664;23.264;2023-06-22T09:16:31;94834.47;;;25.22;49.99
77041;BME280;65974;42.664;23.264;2023-06-22T09:18:57;94833.41;;;25.20;51.32
77041;BME280;65974;42.664;23.264;2023-06-22T09:21:23;94827.38;;;25.16;50.42
77041;BME280;65974;42.664;23.264;2023-06-22T09:23:48;94831.16;;;25.18;50.73
77041;BME280;65974;42.664;23.264;2023-06-22T09:26:19;94831.25;;;25.24;51.21
77041;BME280;65974;42.664;23.264;2023-06-22T09:28:45;94832.13;;;25.30;51.74
77041;BME280;65974;42.664;23.264;2023-06-22T09:31:11;94831.03;;;25.36;52.42
77041;BME280;65974;42.664;23.264;2023-06-22T09:33:37;94839.22;;;25.46;50.95
77041;BME280;65974;42.664;23.264;2023-06-22T09:36:06;94843.56;;;25.52;50.97
77041;BME280;65974;42.664;23.264;2023-06-22T09:38:35;94837.66;;;25.54;51.28
77041;BME280;65974;42.664;23.264;2023-06-22T09:41:01;94838.53;;;25.60;50.37
77041;BME280;65974;42.664;23.264;2023-06-22T09:43:27;94838.53;;;25.60;50.59
77041;BME280;65974;42.664;23.264;2023-06-22T09:45:52;94836.69;;;25.66;51.65
77041;BME280;65974;42.664;23.264;2023-06-22T09:48:18;94833.22;;;25.80;51.55
77041;BME280;65974;42.664;23.264;2023-06-22T09:50:43;94829.59;;;25.83;50.38
77041;BME280;65974;42.664;23.264;2023-06-22T09:53:09;94835.03;;;25.83;48.63
77041;BME280;65974;42.664;23.264;2023-06-22T09:55:34;94824.69;;;25.87;48.05
77041;BME280;65974;42.664;23.264;2023-06-22T09:58:00;94831.84;;;25.84;47.31
77041;BME280;65974;42.664;23.264;2023-06-22T10:00:25;94828.34;;;25.84;46.23
77041;BME280;65974;42.664;23.264;2023-06-22T10:02:51;94820.63;;;25.82;46.87
77041;BME280;65974;42.664;23.264;2023-06-22T10:05:17;94819.25;;;25.87;45.51
77041;BME280;65974;42.664;23.264;2023-06-22T10:07:43;94817.94;;;25.97;46.66
77041;BME280;65974;42.664;23.264;2023-06-22T10:10:10;94818.69;;;25.97;47.56
77041;BME280;65974;42.664;23.264;2023-06-22T10:12:36;94807.44;;;26.04;46.02
77041;BME280;65974;42.664;23.264;2023-06-22T10:15:02;94817.22;;;26.11;48.27
77041;BME280;65974;42.664;23.264;2023-06-22T10:17:28;94815.56;;;26.13;46.53
77041;BME280;65974;42.664;23.264;2023-06-22T10:19:53;94808.13;;;26.14;47.88
77041;BME280;65974;42.664;23.264;2023-06-22T10:22:18;94810.66;;;26.17;46.81
77041;BME280;65974;42.664;23.264;2023-06-22T10:24:44;94806.81;;;26.24;46.73
77041;BME280;65974;42.664;23.264;2023-06-22T10:27:11;94805.53;;;26.34;46.11
77041;BME280;65974;42.664;23.264;2023-06-22T10:29:37;94809.09;;;26.40;45.67
77041;BME280;65974;42.664;23.264;2023-06-22T10:32:02;94804.75;;;26.48;45.38
77041;BME280;65974;42.664;23.264;2023-06-22T10:34:28;94806.84;;;26.53;45.67
77041;BME280;65974;42.664;23.264;2023-06-22T10:36:55;94804.66;;;26.57;46.81
77041;BME280;65974;42.664;23.264;2023-06-22T10:39:20;94806.44;;;26.60;46.62
77041;BME280;65974;42.664;23.264;2023-06-22T10:41:46;94802.09;;;26.68;46.27
77041;BME280;65974;42.664;23.264;2023-06-22T10:44:11;94790.22;;;26.71;45.92
77041;BME280;65974;42.664;23.264;2023-06-22T10:46:37;94791.09;;;26.77;44.26
77041;BME280;65974;42.664;23.264;2023-06-22T10:49:03;94790.16;;;26.80;44.33
77041;BME280;65974;42.664;23.264;2023-06-22T10:51:29;94783.00;;;26.83;44.46
77041;BME280;65974;42.664;23.264;2023-06-22T10:53:54;94780.91;;;26.92;45.04
77041;BME280;65974;42.664;23.264;2023-06-22T10:56:19;94780.63;;;26.90;45.18
77041;BME280;65974;42.664;23.264;2023-06-22T10:58:45;94784.19;;;26.97;45.08
77041;BME280;65974;42.664;23.264;2023-06-22T11:01:11;94786.25;;;27.02;43.20
77041;BME280;65974;42.664;23.264;2023-06-22T11:03:36;94781.63;;;27.08;45.60
77041;BME280;65974;42.664;23.264;2023-06-22T11:06:02;94784.59;;;27.24;43.76
77041;BME280;65974;42.664;23.264;2023-06-22T11:08:27;94780.34;;;27.23;43.97
77041;BME280;65974;42.664;23.264;2023-06-22T11:10:53;94785.81;;;27.23;44.41
77041;BME280;65974;42.664;23.264;2023-06-22T11:13:18;94782.34;;;27.23;45.05
77041;BME280;65974;42.664;23.264;2023-06-22T11:15:44;94776.94;;;27.43;42.10
77041;BME280;65974;42.664;23.264;2023-06-22T11:18:09;94778.03;;;27.51;42.24
77041;BME280;65974;42.664;23.264;2023-06-22T11:20:35;94775.94;;;27.46;41.58
77041;BME280;65974;42.664;23.264;2023-06-22T11:23:04;94771.91;;;27.41;43.71
77041;BME280;65974;42.664;23.264;2023-06-22T11:25:31;94761.06;;;27.47;42.83
77041;BME280;65974;42.664;23.264;2023-06-22T11:27:56;94764.59;;;27.73;40.99
77041;BME280;65974;42.664;23.264;2023-06-22T11:30:22;94762.13;;;27.75;41.79
77041;BME280;65974;42.664;23.264;2023-06-22T11:32:48;94758.16;;;27.76;42.26
77041;BME280;65974;42.664;23.264;2023-06-22T11:35:14;94753.50;;;27.82;43.01
77041;BME280;65974;42.664;23.264;2023-06-22T11:37:39;94760.50;;;27.83;41.48
77041;BME280;65974;42.664;23.264;2023-06-22T11:40:05;94759.25;;;27.84;41.09
77041;BME280;65974;42.664;23.264;2023-06-22T11:42:33;94759.78;;;27.88;41.58
77041;BME280;65974;42.664;23.264;2023-06-22T11:44:59;94751.78;;;27.85;42.80
77041;BME280;65974;42.664;23.264;2023-06-22T11:47:24;94762.06;;;27.70;42.05
77041;BME280;65974;42.664;23.264;2023-06-22T11:49:50;94759.53;;;27.66;43.78
77041;BME280;65974;42.664;23.264;2023-06-22T11:52:15;94757.97;;;27.59;45.36
77041;BME280;65974;42.664;23.264;2023-06-22T11:54:43;94754.56;;;27.44;47.52
77041;BME280;65974;42.664;23.264;2023-06-22T11:57:08;94769.25;;;27.47;53.35
77041;BME280;65974;42.664;23.264;2023-06-22T11:59:34;94763.06;;;27.32;52.53
77041;BME280;65974;42.664;23.264;2023-06-22T12:01:59;94768.88;;;27.19;46.81
77041;BME280;65974;42.664;23.264;2023-06-22T12:04:25;94770.75;;;27.13;49.34
77041;BME280;65974;42.664;23.264;2023-06-22T12:06:50;94768.47;;;26.92;48.94
77041;BME280;65974;42.664;23.264;2023-06-22T12:09:16;94769.22;;;26.77;49.69
77041;BME280;65974;42.664;23.264;2023-06-22T12:11:41;94771.09;;;26.71;52.27
77041;BME280;65974;42.664;23.264;2023-06-22T12:14:07;94782.13;;;26.62;51.96
77041;BME280;65974;42.664;23.264;2023-06-22T12:16:32;94783.66;;;26.49;49.69
77041;BME280;65974;42.664;23.264;2023-06-22T12:18:57;94787.03;;;26.44;51.48
77041;BME280;65974;42.664;23.264;2023-06-22T12:21:23;94787.31;;;26.31;52.76
77041;BME280;65974;42.664;23.264;2023-06-22T12:23:48;94795.22;;;26.14;53.48
77041;BME280;65974;42.664;23.264;2023-06-22T12:26:14;94802.97;;;25.92;54.27
77041;BME280;65974;42.664;23.264;2023-06-22T12:28:39;94803.00;;;25.69;56.01
77041;BME280;65974;42.664;23.264;2023-06-22T12:31:05;94810.94;;;25.34;58.95
77041;BME280;65974;42.664;23.264;2023-06-22T12:33:30;94819.16;;;24.83;61.82
77041;BME280;65974;42.664;23.264;2023-06-22T12:35:56;94820.34;;;24.13;66.31
77041;BME280;65974;42.664;23.264;2023-06-22T12:38:22;94810.94;;;23.60;69.37
77041;BME280;65974;42.664;23.264;2023-06-22T12:40:47;94801.97;;;23.32;71.74
77041;BME280;65974;42.664;23.264;2023-06-22T12:43:14;94810.94;;;22.93;74.40
77041;BME280;65974;42.664;23.264;2023-06-22T12:45:40;94796.22;;;22.51;75.15
77041;BME280;65974;42.664;23.264;2023-06-22T12:48:05;94805.66;;;22.15;74.53
77041;BME280;65974;42.664;23.264;2023-06-22T12:50:31;94811.03;;;22.06;73.82
77041;BME280;65974;42.664;23.264;2023-06-22T12:52:56;94807.28;;;22.13;74.01
77041;BME280;65974;42.664;23.264;2023-06-22T12:55:22;94819.16;;;22.28;71.80
77041;BME280;65974;42.664;23.264;2023-06-22T12:57:48;94819.84;;;22.41;73.45